« Back
NWS Peachtree City, Ga » Text Product » AHN Terminal Aerodrome Forecast


Printer-friendly Version
Current Version              Previous Versions:   1  2  3  4  5  6  7  8  9  

Terminal Aerodrome Forecast

675
FTUS42 KFFC 301549 AAB
TAFAHN
TAF AMD
KAHN 301549Z 3016/3112 35004KT P6SM FEW040
     FM301700 34007KT P6SM VCSH BKN050
      TEMPO 3018/3021 VRB10G20KT 6SM -TSRA BKN040CB
     FM310000 01006KT P6SM SCT060 SCT250=



USA.gov is the U.S. government's official web portal to all federal, state and local government web resources and services.